createdAt,value
2019-05-14T00:00:53.141Z,0
2019-05-14T00:02:03.801Z,0
2019-05-14T00:02:42.068Z,0
2019-05-14T00:03:52.488Z,0
2019-05-14T00:05:03.887Z,0
2019-05-14T00:05:39.844Z,0
2019-05-14T00:06:52.830Z,0
2019-05-14T00:08:03.825Z,0
2019-05-14T00:08:42.318Z,0
2019-05-14T00:09:52.751Z,0
2019-05-14T00:11:03.833Z,0
2019-05-14T00:11:42.622Z,0
2019-05-14T00:12:52.203Z,0
2019-05-14T00:14:03.878Z,0
2019-05-14T00:14:44.373Z,0
2019-05-14T00:15:53.072Z,0
2019-05-14T00:17:03.877Z,0
2019-05-14T00:17:42.459Z,0
2019-05-14T00:18:52.116Z,0
2019-05-14T00:20:13.896Z,0
2019-05-14T00:21:52.253Z,0
2019-05-14T00:23:03.775Z,0
2019-05-14T00:23:42.270Z,0
2019-05-14T00:24:52.845Z,0
2019-05-14T00:26:03.887Z,0
2019-05-14T00:26:42.268Z,0
2019-05-14T00:27:52.768Z,0
2019-05-14T00:29:15.898Z,0
2019-05-14T00:29:52.674Z,0.2
2019-05-14T00:31:03.918Z,0
2019-05-14T00:31:42.776Z,0
2019-05-14T00:32:52.910Z,0
2019-05-14T00:34:03.863Z,0.2
2019-05-14T00:34:42.666Z,0
2019-05-14T00:35:52.379Z,0
2019-05-14T00:37:03.864Z,0
2019-05-14T00:37:42.165Z,0
2019-05-14T00:38:52.239Z,0
2019-05-14T00:40:03.805Z,0
2019-05-14T00:40:42.389Z,0
2019-05-14T00:41:52.182Z,0
2019-05-14T00:43:03.880Z,0
2019-05-14T00:43:42.318Z,0
2019-05-14T00:44:58.529Z,0
2019-05-14T00:46:03.842Z,0
2019-05-14T00:46:41.823Z,0
2019-05-14T00:47:53.366Z,0
2019-05-14T00:49:03.841Z,0
2019-05-14T00:49:42.202Z,0.2
2019-05-14T00:50:52.508Z,0
2019-05-14T00:52:03.784Z,0
2019-05-14T00:52:46.182Z,0
2019-05-14T00:53:52.482Z,0
2019-05-14T00:55:03.867Z,0.2
2019-05-14T00:55:42.271Z,0
2019-05-14T00:56:53.028Z,0
2019-05-14T00:58:03.843Z,0
2019-05-14T00:58:42.258Z,0
2019-05-14T00:59:53.019Z,0
2019-05-14T01:01:03.841Z,0
2019-05-14T01:01:42.714Z,0
2019-05-14T01:02:52.678Z,0
2019-05-14T01:04:03.873Z,0
2019-05-14T01:04:43.046Z,0
2019-05-14T01:05:53.148Z,0
2019-05-14T01:07:03.843Z,0
2019-05-14T01:07:42.056Z,0
2019-05-14T01:08:52.685Z,0
2019-05-14T01:10:03.895Z,0
2019-05-14T01:10:42.240Z,0
2019-05-14T01:11:52.211Z,0
2019-05-14T01:13:03.804Z,0
2019-05-14T01:13:42.478Z,0
2019-05-14T01:15:13.877Z,0
2019-05-14T01:16:03.880Z,0
2019-05-14T01:16:42.655Z,0
2019-05-14T01:17:52.529Z,0
2019-05-14T01:19:03.874Z,0
2019-05-14T01:19:43.028Z,0
2019-05-14T01:20:52.831Z,0
2019-05-14T01:22:03.802Z,0
2019-05-14T01:22:42.458Z,0
2019-05-14T01:23:52.288Z,0
2019-05-14T01:25:03.899Z,0
2019-05-14T01:25:42.411Z,0.2
2019-05-14T01:26:53.160Z,0
2019-05-14T01:28:03.871Z,0
2019-05-14T01:28:42.294Z,0
2019-05-14T01:29:52.328Z,0
2019-05-14T01:31:03.860Z,0
2019-05-14T01:31:42.260Z,0
2019-05-14T01:32:52.135Z,0
2019-05-14T01:34:03.793Z,0
2019-05-14T01:34:42.789Z,0
2019-05-14T01:35:52.360Z,0
2019-05-14T01:37:03.881Z,0
2019-05-14T01:37:42.437Z,0
2019-05-14T01:38:52.231Z,0
2019-05-14T01:40:03.857Z,0
2019-05-14T01:40:42.502Z,0
2019-05-14T01:41:52.540Z,0
2019-05-14T01:43:03.805Z,0
2019-05-14T01:43:42.496Z,0
2019-05-14T01:44:52.831Z,0
2019-05-14T01:45:32.105Z,0
2019-05-14T01:46:42.274Z,0
2019-05-14T01:47:52.907Z,0
2019-05-14T01:49:03.858Z,0
2019-05-14T01:49:42.453Z,0
2019-05-14T01:50:52.960Z,0
2019-05-14T01:52:03.839Z,0
2019-05-14T01:52:42.338Z,0
2019-05-14T01:53:52.923Z,0
2019-05-14T01:55:11.809Z,0
2019-05-14T01:55:42.217Z,0
2019-05-14T01:56:52.417Z,0
2019-05-14T01:58:03.886Z,0
2019-05-14T01:58:42.251Z,0
2019-05-14T01:59:52.498Z,0
2019-05-14T02:01:03.846Z,0
2019-05-14T02:01:42.357Z,0
2019-05-14T02:02:53.291Z,0
2019-05-14T02:04:03.812Z,0
2019-05-14T02:04:43.022Z,0
2019-05-14T02:05:52.934Z,0
2019-05-14T02:07:03.916Z,0
2019-05-14T02:07:42.538Z,0
2019-05-14T02:08:52.381Z,0
2019-05-14T02:10:03.865Z,0
2019-05-14T02:10:42.151Z,0
2019-05-14T02:11:52.701Z,0
2019-05-14T02:13:04.108Z,0
2019-05-14T02:13:42.150Z,0
2019-05-14T02:14:52.163Z,0
2019-05-14T02:15:43.414Z,0
2019-05-14T02:16:42.741Z,0
2019-05-14T02:17:52.686Z,0
2019-05-14T02:19:03.888Z,0
2019-05-14T02:19:42.807Z,0
2019-05-14T02:20:52.945Z,0
2019-05-14T02:22:03.866Z,0
2019-05-14T02:22:42.456Z,0
2019-05-14T02:23:52.274Z,0
2019-05-14T02:25:03.838Z,0
2019-05-14T02:25:41.997Z,0
2019-05-14T02:26:52.349Z,0
2019-05-14T02:28:03.908Z,0
2019-05-14T02:28:42.410Z,0
2019-05-14T02:29:52.745Z,0
2019-05-14T02:31:03.744Z,0
2019-05-14T02:31:40.200Z,0
2019-05-14T02:32:18.626Z,0
2019-05-14T02:33:31.587Z,0
2019-05-14T02:34:41.328Z,0
2019-05-14T02:35:51.900Z,0
2019-05-14T02:36:31.475Z,0
2019-05-14T02:37:41.269Z,0
2019-05-14T02:38:19.706Z,0
2019-05-14T02:39:30.314Z,0
2019-05-14T02:40:41.310Z,0
2019-05-14T02:41:19.865Z,0
2019-05-14T02:42:29.893Z,0
2019-05-14T02:44:03.915Z,0
2019-05-14T02:44:41.758Z,0
2019-05-14T02:45:15.821Z,0
2019-05-14T02:46:22.199Z,0
2019-05-14T02:47:03.893Z,0
2019-05-14T02:48:41.174Z,0
2019-05-14T02:49:15.844Z,0
2019-05-14T02:49:51.938Z,0
2019-05-14T02:50:30.393Z,0
2019-05-14T02:51:19.512Z,0
2019-05-14T02:52:30.008Z,0
2019-05-14T02:53:51.947Z,0
2019-05-14T02:54:30.633Z,0
2019-05-14T02:55:39.963Z,0
2019-05-14T02:56:51.925Z,0
2019-05-14T02:57:31.127Z,0
2019-05-14T02:58:41.039Z,0
2019-05-14T02:59:51.883Z,0
2019-05-14T03:00:31.047Z,0
2019-05-14T03:01:15.960Z,0.2
2019-05-14T03:01:51.996Z,0.2
2019-05-14T03:02:30.604Z,0
2019-05-14T03:03:41.186Z,0
2019-05-14T03:04:51.894Z,0
2019-05-14T03:05:30.401Z,0
2019-05-14T03:06:40.545Z,0
2019-05-14T03:07:51.832Z,0.2
2019-05-14T03:08:31.409Z,0.5
2019-05-14T03:09:41.305Z,0.4
2019-05-14T03:10:51.936Z,0
2019-05-14T03:11:30.634Z,0.2
2019-05-14T03:12:40.683Z,0.2
2019-05-14T03:13:51.924Z,0.2
2019-05-14T03:14:31.024Z,0.2
2019-05-14T03:15:30.156Z,0.4
2019-05-14T03:16:36.871Z,0
2019-05-14T03:17:03.881Z,0.9
2019-05-14T03:17:41.435Z,0.6
2019-05-14T03:18:30.572Z,0.6
2019-05-14T03:19:19.208Z,0.4
2019-05-14T03:20:29.865Z,0.2
2019-05-14T03:21:15.945Z,0.2
2019-05-14T03:21:51.881Z,0.4
2019-05-14T03:23:15.583Z,0
2019-05-14T03:23:23.327Z,0.4
2019-05-14T03:24:29.800Z,0.4
2019-05-14T03:25:40.892Z,0
2019-05-14T03:26:51.911Z,0
2019-05-14T03:27:31.389Z,0
2019-05-14T03:28:51.821Z,0
2019-05-14T03:29:41.178Z,0
2019-05-14T03:30:54.185Z,0
2019-05-14T03:31:34.632Z,0
2019-05-14T03:32:43.897Z,0
2019-05-14T03:33:21.871Z,0
2019-05-14T03:34:34.418Z,0
2019-05-14T03:36:15.147Z,0
2019-05-14T03:36:34.324Z,0
2019-05-14T03:37:31.868Z,0.2
2019-05-14T03:38:40.644Z,0
2019-05-14T03:39:51.928Z,0
2019-05-14T03:40:30.320Z,0
2019-05-14T03:41:40.822Z,0
2019-05-14T03:42:19.586Z,0
2019-05-14T03:43:30.558Z,0
2019-05-14T03:44:40.909Z,0
2019-05-14T03:45:51.842Z,0
2019-05-14T03:47:03.923Z,0
2019-05-14T03:48:19.448Z,0
2019-05-14T03:49:03.939Z,0
2019-05-14T03:49:40.885Z,0
2019-05-14T03:50:19.404Z,0
2019-05-14T03:51:30.676Z,0
2019-05-14T03:52:30.232Z,0
2019-05-14T03:54:51.931Z,0
2019-05-14T03:55:51.903Z,0.2
2019-05-14T03:57:40.969Z,0
2019-05-14T03:58:31.298Z,0
2019-05-14T04:02:20.122Z,0
2019-05-14T04:04:30.893Z,0
2019-05-14T04:11:51.870Z,0
2019-05-14T04:21:40.933Z,0.2
2019-05-14T04:32:19.004Z,0
2019-05-14T04:52:03.905Z,0.2
2019-05-14T04:57:31.088Z,0
2019-05-14T04:58:03.907Z,0
2019-05-14T04:58:42.059Z,0
2019-05-14T04:59:30.954Z,0
2019-05-14T05:00:20.079Z,0.2
2019-05-14T05:01:03.886Z,0
2019-05-14T05:02:03.905Z,0
2019-05-14T05:02:51.903Z,0
2019-05-14T05:03:32.426Z,0
2019-05-14T05:04:03.873Z,0
2019-05-14T05:05:03.923Z,0
2019-05-14T05:05:40.321Z,0
2019-05-14T05:06:19.380Z,0
2019-05-14T05:07:51.974Z,0
2019-05-14T05:08:31.570Z,0.2
2019-05-14T05:10:30.689Z,0
2019-05-14T05:11:03.925Z,0.2
2019-05-14T05:12:30.501Z,0
2019-05-14T05:13:03.890Z,0
2019-05-14T05:14:30.503Z,0.2
2019-05-14T05:15:03.916Z,0
2019-05-14T05:15:51.922Z,0.4
2019-05-14T05:17:03.886Z,0
2019-05-14T05:17:53.538Z,0
2019-05-14T05:18:51.896Z,0.2
2019-05-14T05:20:03.871Z,0.2
2019-05-14T05:21:29.157Z,0.6
2019-05-14T05:22:03.884Z,0.4
2019-05-14T05:22:40.763Z,0.6
2019-05-14T05:23:51.902Z,0.6
2019-05-14T05:24:29.562Z,0.8
2019-05-14T05:25:39.824Z,0.6
2019-05-14T05:26:18.778Z,0.8
2019-05-14T05:27:29.590Z,0.4
2019-05-14T05:28:40.242Z,0.6
2019-05-14T05:29:51.847Z,0.8
2019-05-14T05:30:30.240Z,0.8
2019-05-14T05:31:29.847Z,0.8
2019-05-14T05:32:03.942Z,0.8
2019-05-14T05:32:39.990Z,0.8
2019-05-14T05:33:51.831Z,0.6
2019-05-14T05:34:29.153Z,0.6
2019-05-14T05:35:43.063Z,0.6
2019-05-14T05:36:51.929Z,0.8
2019-05-14T05:37:30.187Z,0.8
2019-05-14T05:38:40.476Z,0.9
2019-05-14T05:39:29.130Z,0.9
2019-05-14T05:40:40.067Z,0.6
2019-05-14T05:41:51.844Z,0.8
2019-05-14T05:42:30.294Z,0.8
2019-05-14T05:43:40.385Z,0.6
2019-05-14T05:44:51.918Z,0.8
2019-05-14T05:45:29.873Z,0.6
2019-05-14T05:46:43.453Z,0.2
2019-05-14T05:47:18.529Z,0.6
2019-05-14T05:48:02.263Z,0.8
2019-05-14T05:49:39.905Z,0.8
2019-05-14T05:50:51.863Z,0.4
2019-05-14T05:51:29.709Z,0.6
2019-05-14T05:52:39.898Z,0.8
2019-05-14T05:53:51.809Z,0.6
2019-05-14T05:54:30.041Z,0.6
2019-05-14T05:55:40.325Z,0.6
2019-05-14T05:56:29.705Z,0.6
2019-05-14T05:57:40.328Z,0.8
2019-05-14T05:58:52.110Z,0.6
2019-05-14T05:59:30.190Z,0.6
2019-05-14T06:00:41.095Z,0.8
2019-05-14T06:01:55.071Z,0.8
2019-05-14T06:02:29.989Z,0.8
2019-05-14T06:03:51.850Z,0.8
2019-05-14T06:04:40.393Z,0.8
2019-05-14T06:05:51.914Z,0.9
2019-05-14T06:06:51.813Z,0.9
2019-05-14T06:07:29.729Z,0.8
2019-05-14T06:08:03.884Z,0.8
2019-05-14T06:09:18.409Z,0.8
2019-05-14T06:09:51.895Z,0.8
2019-05-14T06:11:03.845Z,0.6
2019-05-14T06:12:15.921Z,0.9
2019-05-14T06:12:51.884Z,0.9
2019-05-14T06:13:40.360Z,0.9
2019-05-14T06:14:15.817Z,0.8
2019-05-14T06:14:51.804Z,0.6
2019-05-14T06:15:52.590Z,0.6
2019-05-14T06:17:15.793Z,1.2
2019-05-14T06:17:51.908Z,1.1
2019-05-14T06:19:03.838Z,0.8
2019-05-14T06:20:15.896Z,0.8
2019-05-14T06:20:51.872Z,0.8
2019-05-14T06:22:05.135Z,0.6
2019-05-14T06:23:15.909Z,0.8
2019-05-14T06:23:51.828Z,0.6
2019-05-14T06:25:03.980Z,0.6
2019-05-14T06:26:51.792Z,0.6
2019-05-14T06:28:03.857Z,0.6
2019-05-14T06:28:41.918Z,0.8
2019-05-14T06:29:55.166Z,0.4
2019-05-14T06:30:40.464Z,1
2019-05-14T06:31:15.957Z,0.9
2019-05-14T06:32:03.852Z,0.9
2019-05-14T06:32:51.844Z,0.9
2019-05-14T06:33:51.881Z,0.8
2019-05-14T06:35:03.807Z,0.9
2019-05-14T06:35:40.667Z,0.9
2019-05-14T06:36:51.928Z,1.4
2019-05-14T06:37:30.329Z,1.2
2019-05-14T06:38:18.349Z,0.9
2019-05-14T06:38:51.770Z,0.7
2019-05-14T06:40:03.851Z,0.8
2019-05-14T06:40:40.473Z,0.8
2019-05-14T06:41:29.227Z,0.8
2019-05-14T06:42:29.363Z,0.8
2019-05-14T06:43:15.832Z,0.9
2019-05-14T06:43:51.808Z,0.9
2019-05-14T06:44:30.171Z,1
2019-05-14T06:45:18.893Z,1.2
2019-05-14T06:46:40.125Z,0.6
2019-05-14T06:47:29.751Z,0.8
2019-05-14T06:48:51.849Z,0.8
2019-05-14T06:49:29.869Z,0.8
2019-05-14T06:50:03.897Z,0.8
2019-05-14T06:52:03.829Z,0.9
2019-05-14T06:53:29.976Z,0.8
2019-05-14T06:54:19.071Z,0.8
2019-05-14T06:57:03.907Z,0.8
2019-05-14T07:00:03.818Z,1.1
2019-05-14T07:01:03.876Z,0.8
2019-05-14T07:01:39.815Z,0.8
2019-05-14T07:02:15.808Z,0.8
2019-05-14T07:03:28.994Z,0.8
2019-05-14T07:04:18.622Z,0.8
2019-05-14T07:05:15.892Z,0.6
2019-05-14T07:12:03.833Z,1.2
2019-05-14T07:13:18.347Z,0.6
2019-05-14T07:14:03.855Z,0.8
2019-05-14T07:15:51.770Z,0.9
2019-05-14T07:16:39.950Z,0.9
2019-05-14T07:17:18.519Z,0.8
2019-05-14T07:17:51.844Z,0.9
2019-05-14T07:18:54.620Z,0.9
2019-05-14T07:19:51.791Z,0.9
2019-05-14T07:21:03.843Z,0.7
2019-05-14T07:22:51.871Z,1
2019-05-14T07:23:29.814Z,0.8
2019-05-14T07:24:03.806Z,0.8
2019-05-14T07:24:41.421Z,1.1
2019-05-14T07:25:29.504Z,1.2
2019-05-14T07:26:03.858Z,1
2019-05-14T07:27:29.117Z,0.8
2019-05-14T07:28:03.803Z,0.9
2019-05-14T07:28:51.774Z,1
2019-05-14T07:30:15.910Z,0.8
2019-05-14T07:30:51.857Z,0.9
2019-05-14T07:31:29.955Z,1.1
2019-05-14T07:34:15.885Z,0.8
2019-05-14T07:34:51.867Z,0.8
2019-05-14T07:35:29.738Z,0.8
2019-05-14T07:36:39.866Z,1
2019-05-14T07:38:15.882Z,1.1
2019-05-14T07:38:51.915Z,0.8
2019-05-14T07:40:15.810Z,1
2019-05-14T07:40:51.786Z,0.8
2019-05-14T07:41:40.031Z,1
2019-05-14T07:42:29.798Z,1.2
2019-05-14T07:43:40.328Z,0.8
2019-05-14T07:44:30.457Z,1.1
2019-05-14T07:45:39.768Z,0.8
2019-05-14T07:46:51.821Z,0.8
2019-05-14T07:47:29.908Z,0.8
2019-05-14T07:49:51.799Z,1.1
2019-05-14T07:50:53.005Z,0.9
2019-05-14T07:51:29.108Z,0.8
2019-05-14T07:52:03.760Z,0.2
2019-05-14T07:53:04.080Z,0.7
2019-05-14T07:53:51.828Z,1.2
2019-05-14T07:56:15.776Z,0.8
2019-05-14T07:56:53.825Z,0.9
2019-05-14T07:57:29.397Z,0.9
2019-05-14T07:58:39.803Z,1
2019-05-14T07:59:17.944Z,1.2
2019-05-14T07:59:51.830Z,1
2019-05-14T08:00:41.090Z,1
2019-05-14T08:01:28.997Z,1.1
2019-05-14T08:02:15.861Z,1.3
2019-05-14T08:05:03.792Z,0.8
2019-05-14T08:06:15.853Z,0.9
2019-05-14T08:06:51.801Z,1.4
2019-05-14T08:07:29.077Z,1.3
2019-05-14T08:09:03.832Z,1.2
2019-05-14T08:09:39.948Z,1
2019-05-14T08:10:29.807Z,0.8
2019-05-14T08:11:03.872Z,0.8
2019-05-14T08:12:51.735Z,0.8
2019-05-14T08:13:29.186Z,0.8
2019-05-14T08:15:13.370Z,0.8
2019-05-14T08:15:51.824Z,0.9
2019-05-14T08:16:51.712Z,1.3
2019-05-14T08:17:39.855Z,2.6
2019-05-14T08:18:15.833Z,2.8
2019-05-14T08:19:34.691Z,1.6
2019-05-14T08:20:39.815Z,0.8
2019-05-14T08:21:15.803Z,0.8
2019-05-14T08:22:15.795Z,0.7
2019-05-14T08:23:51.824Z,1
2019-05-14T08:25:29.161Z,0.4
2019-05-14T08:27:39.890Z,0.9
2019-05-14T08:28:15.762Z,0.9
2019-05-14T08:28:51.917Z,0.8
2019-05-14T08:29:29.554Z,0.9
2019-05-14T08:31:03.800Z,0.8
2019-05-14T08:32:29.298Z,0.8
2019-05-14T08:34:39.926Z,0.9
2019-05-14T08:35:35.548Z,0.8
2019-05-14T08:38:12.608Z,0.8
2019-05-14T08:38:51.762Z,0.8
2019-05-14T08:40:51.858Z,0.8
2019-05-14T08:41:39.823Z,0.8
2019-05-14T08:42:39.747Z,0.8
2019-05-14T08:44:03.927Z,0.8
2019-05-14T08:45:14.308Z,1
2019-05-14T08:45:39.911Z,1.1
2019-05-14T08:47:03.849Z,1.1
2019-05-14T08:47:40.094Z,1.3
2019-05-14T08:49:03.753Z,0.8
2019-05-14T08:50:39.768Z,0.8
2019-05-14T08:51:39.859Z,0.8
2019-05-14T08:53:03.800Z,0.8
2019-05-14T08:55:39.766Z,0.8
2019-05-14T08:56:15.753Z,0.8
2019-05-14T08:56:51.797Z,0.6
2019-05-14T08:58:39.782Z,1.2
2019-05-14T08:59:15.821Z,1.5
2019-05-14T08:59:51.778Z,1.7
2019-05-14T09:01:03.697Z,1.2
2019-05-14T09:02:05.330Z,1.5
2019-05-14T09:02:29.528Z,0.8
2019-05-14T09:03:15.865Z,1
2019-05-14T09:04:15.724Z,1.4
2019-05-14T09:06:03.721Z,1.2
2019-05-14T09:06:39.714Z,0.9
2019-05-14T09:08:40.251Z,0.9
2019-05-14T09:10:41.174Z,1.2
2019-05-14T09:11:49.697Z,0.9
2019-05-14T09:12:15.811Z,1.2
2019-05-14T09:13:18.659Z,0.8
2019-05-14T09:13:51.823Z,0.9
2019-05-14T09:14:29.009Z,0.9
2019-05-14T09:15:51.739Z,1
2019-05-14T09:16:51.718Z,1.2
2019-05-14T09:17:18.299Z,1.2
2019-05-14T09:18:04.790Z,1.4
2019-05-14T09:19:03.775Z,1.3
2019-05-14T09:20:11.857Z,1
2019-05-14T09:20:29.826Z,1
2019-05-14T09:21:15.723Z,1
2019-05-14T09:22:29.825Z,1.3
2019-05-14T09:24:03.918Z,1.1
2019-05-14T09:24:51.812Z,1
2019-05-14T09:25:53.792Z,1.2
2019-05-14T09:26:40.036Z,1.3
2019-05-14T09:27:15.766Z,1.2
2019-05-14T09:29:40.425Z,1.3
2019-05-14T09:30:18.211Z,1.4
2019-05-14T09:30:51.709Z,1.2
2019-05-14T09:31:40.308Z,0.9
2019-05-14T09:32:30.040Z,1.1
2019-05-14T09:33:30.510Z,0.8
2019-05-14T09:34:40.285Z,1.2
2019-05-14T09:35:18.081Z,1.1
2019-05-14T09:36:24.376Z,1.2
2019-05-14T09:36:40.526Z,1.6
2019-05-14T09:38:15.735Z,1.5
2019-05-14T09:41:51.910Z,1.1
2019-05-14T09:42:51.701Z,1.7
2019-05-14T09:43:40.207Z,2.2
2019-05-14T09:44:51.775Z,1.5
2019-05-14T09:45:51.794Z,1.3
2019-05-14T09:46:29.816Z,1
2019-05-14T09:50:39.805Z,0.9
2019-05-14T09:51:29.648Z,0.8
2019-05-14T09:53:39.729Z,0.8
2019-05-14T09:55:39.783Z,0.9
2019-05-14T09:56:29.929Z,0.8
2019-05-14T09:58:29.116Z,1.2
2019-05-14T09:59:51.699Z,1.8
2019-05-14T10:00:27.684Z,1.8
2019-05-14T10:01:03.737Z,1.9
2019-05-14T10:02:15.687Z,2.2
2019-05-14T10:03:51.681Z,0.9
2019-05-14T10:04:27.682Z,1
2019-05-14T10:05:27.697Z,1.5
2019-05-14T10:06:40.184Z,1.5
2019-05-14T10:07:16.758Z,1.4
2019-05-14T10:07:51.688Z,1.1
2019-05-14T10:10:03.835Z,0.8
2019-05-14T10:10:40.847Z,0.8
2019-05-14T10:11:15.703Z,0.9
2019-05-14T10:12:03.706Z,1.1
2019-05-14T10:13:15.774Z,1.5
2019-05-14T10:15:39.974Z,0.8
2019-05-14T10:18:15.713Z,1.1
2019-05-14T10:20:03.932Z,1.1
2019-05-14T10:21:15.734Z,1
2019-05-14T10:22:03.792Z,1.1
2019-05-14T10:23:29.218Z,1.5
2019-05-14T10:26:18.244Z,1.1
2019-05-14T10:29:15.777Z,0.9
2019-05-14T10:30:03.867Z,1.1
2019-05-14T10:32:03.675Z,0.8
2019-05-14T10:33:39.709Z,0.9
2019-05-14T10:38:30.316Z,1.5
2019-05-14T10:39:03.658Z,2
2019-05-14T10:39:51.672Z,2.2
2019-05-14T10:41:18.684Z,1
2019-05-14T10:41:51.712Z,1.8
2019-05-14T10:42:41.412Z,2.2
2019-05-14T10:43:29.753Z,1.3
2019-05-14T10:45:29.759Z,1
2019-05-14T10:46:30.071Z,1.5
2019-05-14T10:47:51.635Z,1.3
2019-05-14T10:49:51.742Z,0.8
2019-05-14T10:50:29.691Z,0.9
2019-05-14T10:53:29.927Z,0.9
2019-05-14T10:54:30.173Z,1.2
2019-05-14T10:55:15.672Z,0.9
2019-05-14T10:57:03.701Z,0.8
2019-05-14T10:57:55.031Z,0.8
2019-05-14T10:59:03.673Z,1.6
2019-05-14T11:00:03.648Z,1.5
2019-05-14T11:00:42.803Z,1.4
2019-05-14T11:02:18.381Z,0.9
2019-05-14T11:03:30.971Z,1
2019-05-14T11:04:15.669Z,1.3
2019-05-14T11:04:51.645Z,0.9
2019-05-14T11:05:42.444Z,0.7
2019-05-14T11:06:30.100Z,0.8
2019-05-14T11:07:29.968Z,1
2019-05-14T11:08:15.686Z,1.2
2019-05-14T11:09:17.920Z,0.8
2019-05-14T11:10:15.731Z,0.8
2019-05-14T11:10:51.723Z,1
2019-05-14T11:11:51.739Z,1.1
2019-05-14T11:12:40.567Z,1.2
2019-05-14T11:13:30.235Z,1.3
2019-05-14T11:14:18.991Z,0.9
2019-05-14T11:16:29.253Z,0.9
2019-05-14T11:18:03.722Z,1.1
2019-05-14T11:18:41.075Z,1
2019-05-14T11:19:51.710Z,1
2019-05-14T11:20:32.074Z,1.2
2019-05-14T11:21:30.404Z,1.2
2019-05-14T11:22:18.664Z,1.5
2019-05-14T11:22:51.711Z,1.3
2019-05-14T11:24:30.319Z,1.3
2019-05-14T11:25:29.573Z,1.5
2019-05-14T11:26:30.417Z,1.2
2019-05-14T11:27:30.036Z,1.3
2019-05-14T11:28:03.633Z,1.4
2019-05-14T11:28:40.459Z,0.2
2019-05-14T11:29:30.510Z,0.6
2019-05-14T11:31:34.831Z,0.9
2019-05-14T11:32:18.156Z,0.8
2019-05-14T11:33:03.652Z,0.8
2019-05-14T11:33:39.879Z,0.8
2019-05-14T11:35:40.359Z,1
2019-05-14T11:36:30.024Z,1.1
2019-05-14T11:38:38.363Z,1.1
2019-05-14T11:41:03.646Z,1
2019-05-14T11:42:03.679Z,0.9
2019-05-14T11:42:51.650Z,0.8
2019-05-14T11:44:03.629Z,0.9
2019-05-14T11:46:15.813Z,1.2
2019-05-14T11:47:17.582Z,1.2
2019-05-14T11:48:15.628Z,1.2
2019-05-14T11:48:51.610Z,0.9
2019-05-14T11:49:27.733Z,1.1
2019-05-14T11:52:39.805Z,0.8
2019-05-14T11:53:19.067Z,1.1
2019-05-14T11:55:27.657Z,1
2019-05-14T11:56:42.716Z,1.3
2019-05-14T11:57:27.711Z,1.3
2019-05-14T11:58:19.824Z,1.2
2019-05-14T11:59:39.974Z,1
2019-05-14T12:01:15.669Z,0.6
2019-05-14T12:04:03.719Z,0.9
2019-05-14T12:07:03.683Z,0.9
2019-05-14T12:09:40.101Z,1.2
2019-05-14T12:10:51.640Z,1.2
2019-05-14T12:11:29.826Z,1.1
2019-05-14T12:14:27.711Z,0.8
2019-05-14T12:15:27.629Z,0.8
2019-05-14T12:16:03.687Z,0.8
2019-05-14T12:16:41.094Z,0.9
2019-05-14T12:17:40.434Z,1
2019-05-14T12:18:42.885Z,0.8
2019-05-14T12:19:44.601Z,0.8
2019-05-14T12:20:30.431Z,0.8
2019-05-14T12:21:15.615Z,1
2019-05-14T12:22:51.623Z,0.8
2019-05-14T12:23:30.310Z,1.1
2019-05-14T12:24:39.716Z,1
2019-05-14T12:25:30.197Z,1
2019-05-14T12:26:03.636Z,0.9
2019-05-14T12:27:15.679Z,1
2019-05-14T12:28:15.569Z,0.8
2019-05-14T12:30:15.638Z,0.8
2019-05-14T12:34:18.349Z,0.8
2019-05-14T12:34:51.600Z,0.8
2019-05-14T12:35:41.195Z,1.6
2019-05-14T12:37:51.582Z,1.4
2019-05-14T12:39:51.625Z,0.9
2019-05-14T12:42:15.618Z,1.4
2019-05-14T12:45:15.618Z,0.8
2019-05-14T12:45:51.554Z,0.8
2019-05-14T12:46:30.186Z,0.9
2019-05-14T12:48:15.540Z,0.9
2019-05-14T12:48:51.627Z,0.8
2019-05-14T12:50:15.619Z,0.9
2019-05-14T12:51:03.616Z,0.8
2019-05-14T12:52:26.745Z,0.8
2019-05-14T12:53:40.430Z,0.8
2019-05-14T12:55:03.592Z,1.1
2019-05-14T12:55:51.726Z,1.1
2019-05-14T12:56:51.653Z,0.8
2019-05-14T12:57:40.473Z,1.2
2019-05-14T12:58:49.230Z,1.5
2019-05-14T13:00:03.617Z,1.1
2019-05-14T13:00:40.343Z,1.1
2019-05-14T13:01:27.629Z,1.6
2019-05-14T13:03:03.619Z,0.8
2019-05-14T13:05:39.628Z,0.9
2019-05-14T13:06:30.240Z,1.1
2019-05-14T13:08:03.611Z,1
2019-05-14T13:09:27.584Z,1.3
2019-05-14T13:10:03.558Z,1.6
2019-05-14T13:13:43.757Z,0.9
2019-05-14T13:14:51.585Z,0.8
2019-05-14T13:15:29.573Z,0.8
2019-05-14T13:16:29.352Z,1.2
2019-05-14T13:17:03.649Z,1.3
2019-05-14T13:17:51.640Z,0.8
2019-05-14T13:18:29.948Z,0.9
2019-05-14T13:19:15.587Z,1.1
2019-05-14T13:20:04.007Z,1
2019-05-14T13:21:15.556Z,1
2019-05-14T13:22:51.573Z,1.5
2019-05-14T13:23:39.532Z,1.1
2019-05-14T13:24:17.585Z,1.3
2019-05-14T13:25:03.622Z,1.5
2019-05-14T13:25:40.488Z,1.3
2019-05-14T13:26:51.542Z,0.6
2019-05-14T13:28:15.628Z,0.8
2019-05-14T13:29:15.525Z,1.1
2019-05-14T13:31:51.587Z,0.8
2019-05-14T13:32:29.715Z,0.9
2019-05-14T13:33:03.662Z,1.1
2019-05-14T13:35:03.545Z,1
2019-05-14T13:35:51.565Z,0.8
2019-05-14T13:36:29.637Z,0.9
2019-05-14T13:37:03.630Z,0.9
2019-05-14T13:39:29.104Z,1.6
2019-05-14T13:40:15.607Z,1.2
2019-05-14T13:41:15.577Z,1.1
2019-05-14T13:42:45.386Z,0.8
2019-05-14T13:43:40.871Z,0.6
2019-05-14T13:44:25.746Z,0.8
2019-05-14T13:45:31.017Z,0.9
2019-05-14T13:46:39.629Z,0.8
2019-05-14T13:47:29.648Z,0.8
2019-05-14T13:49:03.605Z,0.8
2019-05-14T13:49:40.054Z,0.8
2019-05-14T13:52:18.087Z,1.2
2019-05-14T13:53:30.600Z,0.8
2019-05-14T13:54:03.515Z,0.8
2019-05-14T13:55:58.655Z,0.9
2019-05-14T13:56:39.942Z,1
2019-05-14T13:57:29.855Z,1.1
2019-05-14T13:58:03.523Z,1
2019-05-14T13:58:51.520Z,0.9
2019-05-14T14:00:15.624Z,0.8
2019-05-14T14:02:03.615Z,1
2019-05-14T14:04:51.543Z,0.9
2019-05-14T14:05:27.738Z,0.9
2019-05-14T14:06:03.605Z,0.8
2019-05-14T14:06:51.658Z,0.9
2019-05-14T14:08:30.124Z,0.9
2019-05-14T14:10:03.628Z,0.8
2019-05-14T14:10:55.167Z,1
2019-05-14T14:11:39.615Z,0.9
2019-05-14T14:13:12.055Z,0.9
2019-05-14T14:13:40.062Z,0.8
2019-05-14T14:14:15.530Z,0.9
2019-05-14T14:15:03.533Z,1.8
2019-05-14T14:17:29.975Z,1.2
2019-05-14T14:18:15.550Z,1.6
2019-05-14T14:18:51.609Z,1.8
2019-05-14T14:19:29.065Z,2.1
2019-05-14T14:20:15.550Z,2.2
2019-05-14T14:22:15.581Z,1.5
2019-05-14T14:24:39.642Z,0.6
2019-05-14T14:25:59.804Z,1.2
2019-05-14T14:27:03.483Z,0.8
2019-05-14T14:28:03.619Z,1.3
2019-05-14T14:29:40.440Z,1
2019-05-14T14:31:42.449Z,1.1
2019-05-14T14:32:41.696Z,0.8
2019-05-14T14:34:42.256Z,1
2019-05-14T14:35:15.597Z,1.2
2019-05-14T14:36:15.574Z,1.4
2019-05-14T14:37:15.585Z,1.2
2019-05-14T14:38:51.572Z,1.3
2019-05-14T14:39:29.451Z,1.8
2019-05-14T14:40:15.681Z,0.9
2019-05-14T14:41:03.560Z,0.8
2019-05-14T14:41:51.527Z,0.8
2019-05-14T14:42:51.570Z,0.8
2019-05-14T14:43:30.319Z,1.2
2019-05-14T14:44:15.514Z,1.4
2019-05-14T14:45:15.633Z,1
2019-05-14T14:46:15.101Z,1.1
2019-05-14T14:46:40.048Z,1
2019-05-14T14:47:40.697Z,0.8
2019-05-14T14:48:15.578Z,0.9
2019-05-14T14:49:28.944Z,1.1
2019-05-14T14:50:51.586Z,0.7
2019-05-14T14:51:29.596Z,0.9
2019-05-14T14:54:10.529Z,0.8
2019-05-14T14:54:39.490Z,0.8
2019-05-14T14:55:15.518Z,0.8
2019-05-14T14:56:39.462Z,0.6
2019-05-14T14:57:31.204Z,0.8
2019-05-14T14:58:40.129Z,1.3
2019-05-14T14:59:31.216Z,0.9
2019-05-14T15:00:51.502Z,1
2019-05-14T15:01:31.043Z,1.1
2019-05-14T15:03:03.614Z,0.8
2019-05-14T15:03:39.654Z,0.6
2019-05-14T15:04:40.640Z,0.7
2019-05-14T15:05:15.587Z,1
2019-05-14T15:06:15.687Z,1.9
2019-05-14T15:06:52.212Z,1.5
2019-05-14T15:07:31.066Z,1.3
2019-05-14T15:08:15.535Z,1.9
2019-05-14T15:09:27.574Z,1.6
2019-05-14T15:10:15.586Z,1.4
2019-05-14T15:11:30.212Z,1.3
2019-05-14T15:13:03.505Z,0.9
2019-05-14T15:13:39.951Z,1.1
2019-05-14T15:14:51.537Z,1.4
2019-05-14T15:15:27.483Z,1.2
2019-05-14T15:16:03.590Z,1
2019-05-14T15:17:03.549Z,0.8
2019-05-14T15:18:39.671Z,0.9
2019-05-14T15:19:40.555Z,0.6
2019-05-14T15:20:15.530Z,0.8
2019-05-14T15:20:51.483Z,0.8
2019-05-14T15:21:51.636Z,0.9
2019-05-14T15:22:51.586Z,0.6
2019-05-14T15:23:29.632Z,0.8
2019-05-14T15:24:19.307Z,0.8
2019-05-14T15:26:03.504Z,0.8
2019-05-14T15:26:51.661Z,0.8
2019-05-14T15:28:03.517Z,1.1
2019-05-14T15:28:51.463Z,1.2
2019-05-14T15:30:51.528Z,1.4
2019-05-14T15:31:39.542Z,1
2019-05-14T15:32:15.478Z,0.9
2019-05-14T15:33:30.155Z,1
2019-05-14T15:34:03.554Z,1.3
2019-05-14T15:35:29.402Z,1.1
2019-05-14T15:36:15.475Z,1.1
2019-05-14T15:37:15.563Z,0.8
2019-05-14T15:38:31.348Z,0.8
2019-05-14T15:39:15.459Z,0.9
2019-05-14T15:41:03.491Z,1
2019-05-14T15:43:40.336Z,0.8
2019-05-14T15:45:00.091Z,0.8
2019-05-14T15:45:39.406Z,1
2019-05-14T15:46:42.918Z,0.9
2019-05-14T15:48:04.864Z,0.9
2019-05-14T15:49:03.450Z,0.6
2019-05-14T15:49:51.449Z,1.4
2019-05-14T15:51:16.090Z,1.2
2019-05-14T15:52:03.425Z,1.2
2019-05-14T15:53:15.498Z,1
2019-05-14T15:54:46.509Z,1
2019-05-14T15:55:15.541Z,0.8
2019-05-14T15:56:40.291Z,0.9
2019-05-14T15:58:39.941Z,0.8
2019-05-14T15:59:15.549Z,0.8
2019-05-14T16:00:03.569Z,0.8
2019-05-14T16:01:03.536Z,0.9
2019-05-14T16:02:30.550Z,0.9
2019-05-14T16:03:03.507Z,0.8
2019-05-14T16:03:51.500Z,0.8
2019-05-14T16:05:03.491Z,0.8
2019-05-14T16:09:15.457Z,1.1
2019-05-14T16:10:40.693Z,0.8
2019-05-14T16:11:51.487Z,0.8
2019-05-14T16:12:33.057Z,1